Time;durP1;ratioP1;P1;durP2;ratioP2;P2;SDS_P1;SDS_P2;PMS_P1;PMS_P2;Temp;Humidity;BMP_temperature;BMP_pressure;BME280_temperature;BME280_humidity;BME280_pressure;Samples;Min_cycle;Max_cycle;Signal;HPM_P1;HPM_P2
2022/01/22 00:02:08;0.00;0.00;0.62;0.00;0.00;0.62;1.93;0.80;;;21.00;27.30;;;;;;2229812;62;20418;-63
2022/01/22 00:04:53;0.00;0.00;0.62;0.00;0.00;0.62;1.50;0.73;;;20.90;27.20;;;;;;2228697;62;20624;-62
2022/01/22 00:07:38;0.00;0.00;0.62;0.00;0.00;0.62;1.50;0.80;;;20.90;27.30;;;;;;2229596;62;20451;-62
2022/01/22 00:10:24;0.00;0.00;0.62;0.00;0.00;0.62;2.37;0.97;;;20.90;27.40;;;;;;2229981;62;20593;-61
2022/01/22 00:14:23;0.00;0.00;0.62;0.00;0.00;0.62;2.00;0.90;;;20.80;27.30;;;;;;2228923;62;20396;-62
2022/01/22 00:16:13;0.00;0.00;0.62;0.00;0.00;0.62;1.40;0.80;;;20.80;27.30;;;;;;2229681;62;20509;-62
2022/01/22 00:18:58;0.00;0.00;0.62;0.00;0.00;0.62;1.30;0.70;;;20.80;27.40;;;;;;2228809;62;20384;-63
2022/01/22 00:21:43;0.00;0.00;0.62;0.00;0.00;0.62;1.50;0.90;;;20.70;27.40;;;;;;2229649;62;20408;-63
2022/01/22 00:24:36;0.00;0.00;0.62;0.00;0.00;0.62;1.20;0.70;;;20.70;27.40;;;;;;2229838;62;20501;-62
2022/01/22 00:27:22;0.00;0.00;0.62;0.00;0.00;0.62;1.97;0.90;;;20.60;27.40;;;;;;2228599;62;20357;-61
2022/01/22 00:30:11;0.00;0.00;0.62;0.00;0.00;0.62;2.03;1.03;;;20.60;27.50;;;;;;2229699;62;20369;-61
2022/01/22 00:32:56;0.00;0.00;0.62;0.00;0.00;0.62;1.20;0.60;;;20.60;27.50;;;;;;2229526;62;20400;-61
2022/01/22 00:35:40;0.00;0.00;0.62;0.00;0.00;0.62;1.70;0.87;;;20.60;27.60;;;;;;2228854;62;20392;-62
2022/01/22 00:38:25;0.00;0.00;0.62;0.00;0.00;0.62;1.73;1.00;;;20.50;27.60;;;;;;2229634;62;20364;-61
2022/01/22 00:41:10;0.00;0.00;0.62;0.00;0.00;0.62;1.30;0.70;;;20.50;27.60;;;;;;2228643;62;20471;-63
2022/01/22 00:43:56;0.00;0.00;0.62;0.00;0.00;0.62;2.20;0.93;;;20.50;27.60;;;;;;2229663;62;20471;-63
2022/01/22 00:46:40;0.00;0.00;0.62;0.00;0.00;0.62;1.60;0.90;;;20.50;27.70;;;;;;2229907;62;20361;-62
2022/01/22 00:49:25;0.00;0.00;0.62;0.00;0.00;0.62;1.80;1.10;;;20.40;27.70;;;;;;2228911;62;20406;-61
2022/01/22 00:52:10;0.00;0.00;0.62;0.00;0.00;0.62;1.30;0.90;;;20.40;27.70;;;;;;2230219;62;20414;-63
2022/01/22 00:54:55;0.00;0.00;0.62;0.00;0.00;0.62;2.03;1.03;;;20.40;27.70;;;;;;2236477;62;20597;-63
2022/01/22 00:57:39;0.00;0.00;0.62;0.00;0.00;0.62;1.60;0.80;;;20.40;27.70;;;;;;2239671;62;20370;-62
2022/01/22 01:00:25;0.00;0.00;0.62;0.00;0.00;0.62;1.60;1.13;;;20.30;27.60;;;;;;2238092;62;20387;-64
2022/01/22 01:03:10;0.00;0.00;0.62;0.00;0.00;0.62;1.50;1.00;;;20.30;27.70;;;;;;2239495;62;20406;-59
2022/01/22 01:05:55;0.00;0.00;0.62;0.00;0.00;0.62;1.93;1.00;;;20.30;27.70;;;;;;2237809;62;20352;-59
2022/01/22 01:08:40;0.00;0.00;0.62;0.00;0.00;0.62;1.70;0.80;;;20.20;27.70;;;;;;2240311;62;20371;-63
2022/01/22 01:11:27;0.00;0.00;0.62;0.00;0.00;0.62;1.50;0.90;;;20.20;27.70;;;;;;2236814;62;20371;-62
2022/01/22 01:14:17;0.00;0.00;0.62;0.00;0.00;0.62;1.40;0.90;;;20.20;27.80;;;;;;2237698;62;20367;-63
2022/01/22 01:32:19;0.00;0.00;0.62;0.00;0.00;0.62;1.20;0.70;;;20.10;27.90;;;;;;2237513;62;20438;-62
2022/01/22 01:35:07;0.00;0.00;0.62;0.00;0.00;0.62;1.30;0.70;;;20.00;28.50;;;;;;2237925;62;20403;-64
2022/01/22 01:37:53;0.00;0.00;0.62;0.00;0.00;0.62;1.97;0.80;;;20.00;27.90;;;;;;2237857;62;20596;-63
2022/01/22 01:40:42;0.00;0.00;0.62;0.00;0.00;0.62;1.90;0.60;;;20.00;28.00;;;;;;2239331;62;20600;-63
2022/01/22 01:43:32;0.00;0.00;0.62;0.00;0.00;0.62;1.30;0.77;;;20.00;28.00;;;;;;2240107;62;20584;-63
2022/01/22 01:46:43;0.00;0.00;0.62;0.00;0.00;0.62;1.30;0.70;;;20.00;28.00;;;;;;2238101;62;20372;-62
2022/01/22 01:49:31;0.00;0.00;0.62;0.00;0.00;0.62;1.30;0.73;;;20.00;28.00;;;;;;2239640;62;20723;-62
2022/01/22 01:52:23;0.00;0.00;0.62;0.00;0.00;0.62;2.37;0.83;;;20.00;28.10;;;;;;2240108;61;20474;-63
2022/01/22 01:55:16;0.00;0.00;0.62;0.00;0.00;0.62;1.40;0.77;;;20.00;28.10;;;;;;2235560;62;20467;-63
2022/01/22 01:58:03;0.00;0.00;0.62;0.00;0.00;0.62;1.30;0.60;;;19.90;28.00;;;;;;2240241;61;20791;-63
2022/01/22 02:00:51;0.00;0.00;0.62;0.00;0.00;0.62;1.20;0.60;;;20.00;28.20;;;;;;2240340;62;20592;-61
2022/01/22 02:03:37;0.00;0.00;0.62;0.00;0.00;0.62;1.20;0.70;;;20.00;28.20;;;;;;2239135;62;20410;-60
2022/01/22 02:06:35;0.00;0.00;0.62;0.00;0.00;0.62;1.20;0.63;;;20.00;28.20;;;;;;2240047;62;20596;-62
2022/01/22 02:09:20;0.00;0.00;0.62;0.00;0.00;0.62;1.30;0.70;;;19.90;28.10;;;;;;2237806;62;20597;-62
2022/01/22 02:12:13;0.00;0.00;0.62;0.00;0.00;0.62;1.33;0.80;;;19.90;28.10;;;;;;2239969;61;20387;-62
2022/01/22 02:24:40;0.00;0.00;0.62;0.00;0.00;0.62;1.47;0.87;;;19.80;28.20;;;;;;2236774;62;20768;-61
2022/01/22 02:27:25;0.00;0.00;0.62;0.00;0.00;0.62;1.20;0.70;;;19.80;28.20;;;;;;2237688;62;20701;-60
2022/01/22 02:30:18;0.00;0.00;0.62;0.00;0.00;0.62;1.20;0.70;;;19.80;28.30;;;;;;2240425;62;20404;-62
2022/01/22 02:33:35;0.00;0.00;0.62;0.00;0.00;0.62;1.40;0.80;;;19.80;28.30;;;;;;2238846;61;20407;-62
2022/01/22 02:36:26;0.00;0.00;0.62;0.00;0.00;0.62;1.77;1.00;;;19.80;28.30;;;;;;2237713;62;20436;-62
2022/01/22 02:41:57;0.00;0.00;0.62;0.00;0.00;0.62;1.60;0.90;;;19.70;28.30;;;;;;2237559;62;20424;-63
2022/01/22 02:44:45;0.00;0.00;0.62;0.00;0.00;0.62;1.50;0.90;;;19.70;28.30;;;;;;2240062;62;20371;-62
2022/01/22 02:47:32;0.00;0.00;0.62;0.00;0.00;0.62;2.07;1.20;;;19.70;28.50;;;;;;2236134;62;20367;-63
2022/01/22 02:50:19;0.00;0.00;0.62;0.00;0.00;0.62;1.50;0.90;;;19.70;28.30;;;;;;2240047;62;20495;-59
2022/01/22 02:53:06;0.00;0.00;0.62;0.00;0.00;0.62;1.30;0.83;;;19.70;28.30;;;;;;2237644;62;20387;-62
2022/01/22 02:55:54;0.00;0.00;0.62;0.00;0.00;0.62;1.40;0.80;;;19.70;28.40;;;;;;2235115;62;20610;-63
2022/01/22 02:58:39;0.00;0.00;0.62;0.00;0.00;0.62;1.40;1.00;;;19.70;28.40;;;;;;2236080;62;20598;-62
2022/01/22 03:01:24;0.00;0.00;0.62;0.00;0.00;0.62;1.40;0.90;;;19.70;28.40;;;;;;2233180;62;20417;-60
2022/01/22 03:04:08;0.00;0.00;0.62;0.00;0.00;0.62;1.30;0.80;;;19.70;28.50;;;;;;2233304;62;20361;-60
2022/01/22 03:06:53;0.00;0.00;0.62;0.00;0.00;0.62;1.30;0.80;;;19.70;28.50;;;;;;2233461;62;20772;-62
2022/01/22 03:09:43;0.00;0.00;0.62;0.00;0.00;0.62;1.43;0.90;;;19.60;28.40;;;;;;2232480;62;20449;-63
2022/01/22 03:18:42;0.00;0.00;0.62;0.00;0.00;0.62;1.40;0.70;;;19.60;28.50;;;;;;2235313;62;20364;-62
2022/01/22 03:21:36;0.00;0.00;0.62;0.00;0.00;0.62;1.30;0.70;;;19.60;28.50;;;;;;2233300;62;20368;-60
2022/01/22 03:27:26;0.00;0.00;0.62;0.00;0.00;0.62;1.87;0.90;;;19.60;28.60;;;;;;2235917;62;20385;-62
2022/01/22 03:30:12;0.00;0.00;0.62;0.00;0.00;0.62;1.30;0.73;;;19.60;28.60;;;;;;2233855;62;20409;-62
2022/01/22 03:32:57;0.00;0.00;0.62;0.00;0.00;0.62;1.40;1.07;;;19.60;28.60;;;;;;2232434;62;20539;-62
2022/01/22 03:35:50;0.00;0.00;0.62;0.00;0.00;0.62;1.20;0.70;;;19.60;28.60;;;;;;2233342;62;20779;-61
2022/01/22 03:38:36;0.00;0.00;0.62;0.00;0.00;0.62;1.30;0.70;;;19.60;28.60;;;;;;2232561;62;20372;-63
2022/01/22 03:41:20;0.00;0.00;0.62;0.00;0.00;0.62;1.57;0.80;;;19.60;28.70;;;;;;2233513;62;20756;-60
2022/01/22 03:44:11;0.00;0.00;0.62;0.00;0.00;0.62;1.50;1.03;;;19.60;28.60;;;;;;2233325;62;20612;-63
2022/01/22 03:46:57;0.00;0.00;0.62;0.00;0.00;0.62;1.30;0.70;;;19.60;28.70;;;;;;2235045;62;20491;-59
2022/01/22 03:49:42;0.00;0.00;0.62;0.00;0.00;0.62;1.20;0.70;;;19.60;28.70;;;;;;2235887;62;20376;-60
2022/01/22 03:52:30;0.00;0.00;0.62;0.00;0.00;0.62;1.87;0.80;;;19.60;28.70;;;;;;2233307;62;20407;-63
2022/01/22 03:55:32;0.00;0.00;0.62;0.00;0.00;0.62;1.53;0.80;;;19.70;28.80;;;;;;2235575;62;20402;-63
2022/01/22 03:58:40;0.00;0.00;0.62;0.00;0.00;0.62;1.40;0.70;;;19.70;28.80;;;;;;2237554;62;20388;-63
2022/01/22 04:02:13;0.00;0.00;0.62;0.00;0.00;0.62;1.30;0.77;;;19.70;28.80;;;;;;2236637;62;20501;-59
2022/01/22 04:05:03;0.00;0.00;0.62;0.00;0.00;0.62;1.60;0.80;;;19.70;28.80;;;;;;2237109;62;20363;-61
2022/01/22 04:08:09;0.00;0.00;0.62;0.00;0.00;0.62;1.20;0.70;;;19.70;28.80;;;;;;2237276;62;20367;-63
2022/01/22 04:10:54;0.00;0.00;0.62;0.00;0.00;0.62;1.20;0.60;;;19.70;28.80;;;;;;2237679;62;20366;-63
2022/01/22 04:13:38;0.00;0.00;0.62;0.00;0.00;0.62;1.30;0.73;;;19.70;28.80;;;;;;2239884;62;20413;-60
2022/01/22 04:16:23;0.00;0.00;0.62;0.00;0.00;0.62;1.67;0.90;;;19.70;28.80;;;;;;2236632;62;20387;-62
2022/01/22 04:25:21;0.00;0.00;0.62;0.00;0.00;0.62;1.40;0.80;;;19.70;28.80;;;;;;2238098;62;20399;-62
2022/01/22 04:28:08;0.00;0.00;0.62;0.00;0.00;0.62;1.40;0.70;;;19.70;28.80;;;;;;2238101;62;20367;-62
2022/01/22 04:30:53;0.00;0.00;0.62;0.00;0.00;0.62;1.30;0.70;;;19.70;29.00;;;;;;2237113;62;20376;-62
2022/01/22 04:33:38;0.00;0.00;0.62;0.00;0.00;0.62;1.40;0.70;;;19.70;28.90;;;;;;2238068;62;20458;-62
2022/01/22 04:36:23;0.00;0.00;0.62;0.00;0.00;0.62;2.37;0.80;;;19.70;28.90;;;;;;2240619;62;20399;-62
2022/01/22 04:39:09;0.00;0.00;0.62;0.00;0.00;0.62;1.40;1.00;;;19.70;28.90;;;;;;2237007;62;20371;-61
2022/01/22 04:41:56;0.00;0.00;0.62;0.00;0.00;0.62;1.30;0.80;;;19.70;28.90;;;;;;2237474;62;20717;-61
2022/01/22 04:44:52;0.00;0.00;0.62;0.00;0.00;0.62;1.30;0.70;;;19.80;28.90;;;;;;2240317;62;20367;-60
2022/01/22 04:56:39;0.00;0.00;0.62;0.00;0.00;0.62;1.30;0.70;;;19.80;28.90;;;;;;2674645;46;20389;-63
2022/01/22 04:59:24;0.00;0.00;0.62;0.00;0.00;0.62;1.40;0.90;;;19.80;28.90;;;;;;2230214;62;20426;-63
2022/01/22 05:02:09;0.00;0.00;0.62;0.00;0.00;0.62;1.30;0.70;;;19.80;28.90;;;;;;2229480;62;20454;-61
2022/01/22 05:05:16;0.00;0.00;0.62;0.00;0.00;0.62;1.30;0.80;;;19.80;28.90;;;;;;2230255;62;20389;-63
2022/01/22 05:08:09;0.00;0.00;0.62;0.00;0.00;0.62;1.40;0.80;;;19.80;28.90;;;;;;2229212;62;20394;-62
2022/01/22 05:10:59;0.00;0.00;0.62;0.00;0.00;0.62;1.50;0.80;;;19.80;28.90;;;;;;2229569;62;20697;-60
2022/01/22 05:13:46;0.00;0.00;0.62;0.00;0.00;0.62;1.30;0.70;;;19.80;28.90;;;;;;2230452;62;20369;-62
2022/01/22 05:16:30;0.00;0.00;0.62;0.00;0.00;0.62;1.63;0.90;;;19.90;29.00;;;;;;2229069;62;20612;-61
2022/01/22 05:19:23;0.00;0.00;0.62;0.00;0.00;0.62;1.20;0.67;;;19.80;28.90;;;;;;2229714;62;20410;-60
2022/01/22 05:22:59;0.00;0.00;0.62;0.00;0.00;0.62;1.37;0.80;;;19.90;28.90;;;;;;2229022;62;20489;-62
2022/01/22 05:25:20;0.00;0.00;0.62;0.00;0.00;0.62;1.30;0.80;;;19.90;28.90;;;;;;2229898;62;20445;-62
2022/01/22 05:37:46;0.00;0.00;0.62;0.00;0.00;0.62;1.20;0.70;;;19.90;28.90;;;;;;2231427;62;20440;-61
2022/01/22 05:40:31;0.00;0.00;0.62;0.00;0.00;0.62;1.67;0.90;;;19.90;28.90;;;;;;2230075;62;20410;-62
2022/01/22 05:43:16;0.00;0.00;0.62;0.00;0.00;0.62;1.40;0.80;;;20.00;29.00;;;;;;2230406;62;20515;-61
2022/01/22 05:46:00;0.00;0.00;0.62;0.00;0.00;0.62;1.30;0.80;;;20.00;28.90;;;;;;2229197;62;20405;-61
2022/01/22 05:48:46;0.00;0.00;0.62;0.00;0.00;0.62;1.50;0.83;;;20.00;28.90;;;;;;2230039;62;20770;-62
2022/01/22 05:51:32;0.00;0.00;0.62;0.00;0.00;0.62;1.20;0.80;;;20.00;28.90;;;;;;2229327;62;20624;-59
2022/01/22 05:54:49;0.00;0.00;0.62;0.00;0.00;0.62;1.30;0.90;;;20.00;28.90;;;;;;2233853;62;20376;-61
2022/01/22 06:01:03;0.00;0.00;0.62;0.00;0.00;0.62;1.37;0.90;;;20.00;28.90;;;;;;2237092;62;20420;-62
2022/01/22 06:04:11;0.00;0.00;0.62;0.00;0.00;0.62;1.20;0.80;;;20.00;28.90;;;;;;2237969;62;20351;-62
2022/01/22 06:06:56;0.00;0.00;0.62;0.00;0.00;0.62;1.60;0.97;;;20.00;28.90;;;;;;2239468;62;20581;-61
2022/01/22 06:15:33;0.00;0.00;0.62;0.00;0.00;0.62;1.40;0.77;;;20.00;28.90;;;;;;2236439;62;20419;-62
2022/01/22 06:18:38;0.00;0.00;0.62;0.00;0.00;0.62;1.50;0.90;;;20.00;28.90;;;;;;2237855;62;20416;-63
2022/01/22 06:21:24;0.00;0.00;0.62;0.00;0.00;0.62;1.73;0.90;;;20.00;28.90;;;;;;2236490;62;20371;-62
2022/01/22 06:24:12;0.00;0.00;0.62;0.00;0.00;0.62;1.63;0.80;;;20.10;28.90;;;;;;2240121;62;20371;-62
2022/01/22 06:26:57;0.00;0.00;0.62;0.00;0.00;0.62;1.30;0.90;;;20.10;28.90;;;;;;2237599;62;20356;-62
2022/01/22 06:29:42;0.00;0.00;0.62;0.00;0.00;0.62;1.33;0.80;;;20.10;28.90;;;;;;2236720;62;20367;-61
2022/01/22 06:32:29;0.00;0.00;0.62;0.00;0.00;0.62;1.30;0.77;;;20.10;28.90;;;;;;2239987;61;20403;-61
2022/01/22 06:35:14;0.00;0.00;0.62;0.00;0.00;0.62;1.60;0.83;;;20.10;28.90;;;;;;2237895;62;20359;-62
2022/01/22 06:38:03;0.00;0.00;0.62;0.00;0.00;0.62;1.30;0.80;;;20.10;28.90;;;;;;2239453;62;20370;-61
2022/01/22 06:41:44;0.00;0.00;0.62;0.00;0.00;0.62;1.73;0.97;;;20.10;28.90;;;;;;2244741;61;20393;-64
2022/01/22 06:44:47;0.00;0.00;0.62;0.00;0.00;0.62;1.60;0.70;;;20.10;28.90;;;;;;2243691;61;20369;-61
2022/01/22 06:48:01;0.00;0.00;0.62;0.00;0.00;0.62;1.73;0.80;;;20.10;28.90;;;;;;2237767;62;20387;-62
2022/01/22 06:50:50;0.00;0.00;0.62;0.00;0.00;0.62;1.50;0.80;;;20.10;28.80;;;;;;2239357;62;20371;-62
2022/01/22 06:53:40;0.00;0.00;0.62;0.00;0.00;0.62;1.43;0.70;;;20.10;28.90;;;;;;2238903;62;20465;-63
2022/01/22 06:56:25;0.00;0.00;0.62;0.00;0.00;0.62;1.40;0.70;;;20.10;28.80;;;;;;2233471;62;20623;-62
2022/01/22 06:59:36;0.00;0.00;0.62;0.00;0.00;0.62;1.20;0.70;;;20.20;28.90;;;;;;2232642;62;20372;-63
2022/01/22 07:02:23;0.00;0.00;0.62;0.00;0.00;0.62;1.30;0.70;;;20.20;28.90;;;;;;2233307;62;20391;-62
2022/01/22 07:05:08;0.00;0.00;0.62;0.00;0.00;0.62;1.50;0.70;;;20.10;28.80;;;;;;2233175;62;20405;-62
2022/01/22 07:08:09;0.00;0.00;0.62;0.00;0.00;0.62;1.30;0.80;;;20.20;28.90;;;;;;2233301;62;20424;-62
2022/01/22 07:10:59;0.00;0.00;0.62;0.00;0.00;0.62;1.43;0.90;;;20.20;28.90;;;;;;2233281;62;20376;-61
2022/01/22 07:13:46;0.00;0.00;0.62;0.00;0.00;0.62;1.73;1.03;;;20.20;28.90;;;;;;2232586;62;20428;-62
2022/01/22 07:16:31;0.00;0.00;0.62;0.00;0.00;0.62;1.30;0.77;;;20.20;28.90;;;;;;2233772;62;20395;-63
2022/01/22 07:19:41;0.00;0.00;0.62;0.00;0.00;0.62;1.90;1.20;;;20.20;28.90;;;;;;2233999;62;20755;-61
2022/01/22 07:23:15;0.00;0.00;0.62;0.00;0.00;0.62;1.40;1.00;;;20.20;28.90;;;;;;2233310;62;20396;-63
2022/01/22 07:26:20;0.00;0.00;0.62;0.00;0.00;0.62;1.30;0.77;;;20.20;28.90;;;;;;2233373;62;20391;-62
2022/01/22 07:29:13;0.00;0.00;0.62;0.00;0.00;0.62;1.30;0.80;;;20.20;28.90;;;;;;2232509;62;20368;-62
2022/01/22 07:32:03;0.00;0.00;0.62;0.00;0.00;0.62;1.43;0.90;;;20.20;28.90;;;;;;2233134;62;20395;-61
2022/01/22 07:34:47;0.00;0.00;0.62;0.00;0.00;0.62;1.30;0.80;;;20.20;28.90;;;;;;2233144;62;20368;-62
2022/01/22 07:37:40;0.00;0.00;0.62;0.00;0.00;0.62;1.53;0.90;;;20.20;28.90;;;;;;2233165;62;20365;-62
2022/01/22 07:40:33;0.00;0.00;0.62;0.00;0.00;0.62;1.40;0.80;;;20.20;28.90;;;;;;2233241;62;20364;-62
2022/01/22 07:43:24;0.00;0.00;0.62;0.00;0.00;0.62;1.40;0.83;;;20.20;28.90;;;;;;2232563;62;20380;-62
2022/01/22 07:46:27;0.00;0.00;0.62;0.00;0.00;0.62;1.60;0.90;;;20.20;28.90;;;;;;2233473;62;20764;-63
2022/01/22 07:49:20;0.00;0.00;0.62;0.00;0.00;0.62;1.80;0.80;;;20.20;28.90;;;;;;2233263;62;20401;-63
2022/01/22 07:52:08;0.00;0.00;0.62;0.00;0.00;0.62;1.30;0.80;;;20.20;28.90;;;;;;2232537;62;20647;-63
2022/01/22 07:54:52;0.00;0.00;0.62;0.00;0.00;0.62;2.33;1.20;;;20.20;28.90;;;;;;2234161;62;20376;-63
2022/01/22 07:57:37;0.00;0.00;0.62;0.00;0.00;0.62;1.57;1.00;;;20.20;29.50;;;;;;2232882;62;20360;-64
2022/01/22 08:00:28;0.00;0.00;0.62;0.00;0.00;0.62;1.30;0.80;;;20.20;28.90;;;;;;2233830;62;20367;-62
2022/01/22 08:03:13;0.00;0.00;0.62;0.00;0.00;0.62;1.47;1.10;;;20.20;28.90;;;;;;2234015;62;20392;-64
2022/01/22 08:06:17;0.00;0.00;0.62;0.00;0.00;0.62;2.10;1.30;;;20.20;28.90;;;;;;2233089;62;20393;-63
2022/01/22 08:09:21;0.00;0.00;0.62;0.00;0.00;0.62;1.60;0.97;;;20.30;29.00;;;;;;2234104;62;20375;-65
2022/01/22 08:12:26;0.00;0.00;0.62;0.00;0.00;0.62;1.70;1.10;;;20.20;28.90;;;;;;2232857;62;20738;-63
2022/01/22 08:15:16;0.00;0.00;0.62;0.00;0.00;0.62;2.07;1.20;;;20.30;29.00;;;;;;2233808;62;20736;-64
2022/01/22 08:18:05;0.00;0.00;0.62;0.00;0.00;0.62;1.60;1.00;;;20.20;28.90;;;;;;2234118;62;20371;-63
2022/01/22 08:20:51;0.00;0.00;0.62;0.00;0.00;0.62;1.60;1.10;;;20.20;28.90;;;;;;2232593;62;20388;-65
2022/01/22 08:23:55;0.00;0.00;0.62;0.00;0.00;0.62;1.40;1.00;;;20.20;28.90;;;;;;2234234;62;20363;-64
2022/01/22 08:27:12;0.00;0.00;0.62;0.00;0.00;0.62;1.80;1.10;;;20.20;29.00;;;;;;2233295;62;20428;-62
2022/01/22 08:29:58;0.00;0.00;0.62;0.00;0.00;0.62;1.77;1.23;;;20.20;28.90;;;;;;2233628;62;20363;-61
2022/01/22 08:33:06;0.00;0.00;0.62;0.00;0.00;0.62;2.20;1.20;;;20.20;28.90;;;;;;2233825;62;20509;-64
2022/01/22 08:35:54;0.00;0.00;0.62;0.00;0.00;0.62;1.80;1.30;;;20.20;28.90;;;;;;2233342;62;20387;-63
2022/01/22 08:38:41;0.00;0.00;0.62;0.00;0.00;0.62;1.40;1.13;;;20.30;29.00;;;;;;2233921;62;20372;-63
2022/01/22 08:41:26;0.00;0.00;0.62;0.00;0.00;0.62;1.70;1.00;;;20.30;29.00;;;;;;2233812;62;20586;-64
2022/01/22 08:44:12;0.00;0.00;0.62;0.00;0.00;0.62;2.00;1.53;;;20.30;29.00;;;;;;2233297;62;20389;-63
2022/01/22 08:46:57;0.00;0.00;0.62;0.00;0.00;0.62;1.80;1.37;;;20.30;29.00;;;;;;2233813;62;20590;-64
2022/01/22 08:49:42;0.00;0.00;0.62;0.00;0.00;0.62;2.37;1.30;;;20.30;29.00;;;;;;2232756;62;20381;-63
2022/01/22 08:52:32;0.00;0.00;0.62;0.00;0.00;0.62;1.80;1.27;;;20.20;28.90;;;;;;2233875;62;20391;-63
2022/01/22 08:55:17;0.00;0.00;0.62;0.00;0.00;0.62;2.20;1.70;;;20.30;29.00;;;;;;2294384;54;20371;-61
2022/01/22 08:58:03;0.00;0.00;0.62;0.00;0.00;0.62;1.30;0.93;;;20.30;29.00;;;;;;2236578;62;20452;-64
2022/01/22 09:00:54;0.00;0.00;0.62;0.00;0.00;0.62;1.50;1.00;;;20.30;29.00;;;;;;2237549;62;20453;-63
2022/01/22 09:03:48;0.00;0.00;0.62;0.00;0.00;0.62;2.43;1.07;;;20.30;29.00;;;;;;2240099;62;20735;-62
2022/01/22 09:06:51;0.00;0.00;0.62;0.00;0.00;0.62;1.60;1.00;;;20.30;29.00;;;;;;2237958;62;20363;-61
2022/01/22 09:09:52;0.00;0.00;0.62;0.00;0.00;0.62;1.77;1.03;;;20.30;29.00;;;;;;2240669;62;20715;-63
2022/01/22 09:12:56;0.00;0.00;0.62;0.00;0.00;0.62;2.30;1.13;;;20.30;28.90;;;;;;2236691;62;20391;-62
2022/01/22 09:15:43;0.00;0.00;0.62;0.00;0.00;0.62;1.70;1.00;;;20.30;28.90;;;;;;2238010;62;20420;-62
2022/01/22 09:18:28;0.00;0.00;0.62;0.00;0.00;0.62;1.67;1.10;;;20.30;28.90;;;;;;2237979;62;20371;-62
2022/01/22 09:21:13;0.00;0.00;0.62;0.00;0.00;0.62;1.70;1.00;;;20.40;29.00;;;;;;2239910;62;20715;-62
2022/01/22 09:23:57;0.00;0.00;0.62;0.00;0.00;0.62;1.70;1.00;;;20.40;29.00;;;;;;2240235;62;20371;-62
2022/01/22 09:26:44;0.00;0.00;0.62;0.00;0.00;0.62;1.60;1.00;;;20.40;28.90;;;;;;2236918;62;20740;-63
2022/01/22 09:29:29;0.00;0.00;0.62;0.00;0.00;0.62;1.93;1.30;;;20.40;28.90;;;;;;2240342;62;20371;-63
2022/01/22 09:32:13;0.00;0.00;0.62;0.00;0.00;0.62;1.60;1.20;;;20.40;28.90;;;;;;2240346;61;20420;-64
2022/01/22 09:35:24;0.00;0.00;0.62;0.00;0.00;0.62;1.50;0.93;;;20.40;28.90;;;;;;2238097;61;20378;-64
2022/01/22 09:38:28;0.00;0.00;0.62;0.00;0.00;0.62;1.50;0.80;;;20.50;28.90;;;;;;2237868;62;20406;-63
2022/01/22 09:41:32;0.00;0.00;0.62;0.00;0.00;0.62;1.70;1.10;;;20.50;28.90;;;;;;2236768;62;20367;-63
2022/01/22 09:44:50;0.00;0.00;0.62;0.00;0.00;0.62;1.50;0.93;;;20.50;28.90;;;;;;2240531;61;20380;-62
2022/01/22 09:47:55;0.00;0.00;0.62;0.00;0.00;0.62;1.30;0.77;;;20.50;28.90;;;;;;2237574;62;20629;-64
2022/01/22 09:50:52;0.00;0.00;0.62;0.00;0.00;0.62;2.27;1.10;;;20.50;28.90;;;;;;2239952;62;20360;-63
2022/01/22 09:53:55;0.00;0.00;0.62;0.00;0.00;0.62;1.67;1.17;;;20.50;28.90;;;;;;2236527;62;20375;-63
2022/01/22 09:56:56;0.00;0.00;0.62;0.00;0.00;0.62;1.80;0.90;;;20.50;28.90;;;;;;2233872;62;20389;-64
2022/01/22 10:00:05;0.00;0.00;0.62;0.00;0.00;0.62;1.93;1.20;;;20.60;28.90;;;;;;2229945;62;20646;-63
2022/01/22 10:02:59;0.00;0.00;0.62;0.00;0.00;0.62;1.43;0.90;;;20.60;28.90;;;;;;2229456;62;20542;-62
2022/01/22 10:05:57;0.00;0.00;0.62;0.00;0.00;0.62;3.77;1.20;;;20.60;28.90;;;;;;2232392;62;20620;-63
2022/01/22 10:09:14;0.00;0.00;0.62;0.00;0.00;0.62;2.07;1.30;;;20.60;28.90;;;;;;2232530;62;20361;-62
2022/01/22 10:12:19;0.00;0.00;0.62;0.00;0.00;0.62;1.60;0.97;;;20.60;28.90;;;;;;2228816;62;20389;-64
2022/01/22 10:15:28;0.00;0.00;0.62;0.00;0.00;0.62;1.20;0.73;;;20.60;28.80;;;;;;2229921;62;20380;-65
2022/01/22 10:18:19;0.00;0.00;0.62;0.00;0.00;0.62;1.90;0.90;;;20.60;28.80;;;;;;2231289;62;20507;-62
2022/01/22 10:21:08;0.00;0.00;0.62;0.00;0.00;0.62;1.30;0.83;;;20.60;28.80;;;;;;2229982;62;20368;-62
2022/01/22 10:23:53;0.00;0.00;0.62;0.00;0.00;0.62;2.23;1.00;;;20.70;28.90;;;;;;2232247;62;20385;-63
2022/01/22 10:26:38;0.00;0.00;0.62;0.00;0.00;0.62;1.50;1.00;;;20.70;28.90;;;;;;2228755;62;20365;-62
2022/01/22 10:29:22;0.00;0.00;0.62;0.00;0.00;0.62;1.20;0.80;;;20.70;28.90;;;;;;2229895;62;20369;-61
2022/01/22 10:32:08;0.00;0.00;0.62;0.00;0.00;0.62;3.83;0.90;;;20.70;28.90;;;;;;2230092;62;20418;-63
2022/01/22 10:35:25;0.00;0.00;0.62;0.00;0.00;0.62;1.73;0.90;;;20.70;28.90;;;;;;2229971;62;20381;-62
2022/01/22 10:38:38;0.00;0.00;0.62;0.00;0.00;0.62;1.57;0.87;;;20.70;28.80;;;;;;2229707;62;20370;-64
2022/01/22 10:41:34;0.00;0.00;0.62;0.00;0.00;0.62;1.50;1.00;;;20.80;28.90;;;;;;2228696;62;20369;-63
2022/01/22 10:44:37;0.00;0.00;0.62;0.00;0.00;0.62;1.33;0.80;;;20.80;28.90;;;;;;2229504;62;20417;-63
2022/01/22 10:47:25;0.00;0.00;0.62;0.00;0.00;0.62;1.50;0.87;;;20.80;28.90;;;;;;2229708;62;20405;-64
2022/01/22 10:50:20;0.00;0.00;0.62;0.00;0.00;0.62;1.60;0.93;;;20.80;28.80;;;;;;2229877;62;20442;-63
2022/01/22 10:53:04;0.00;0.00;0.62;0.00;0.00;0.62;1.40;0.80;;;20.80;28.80;;;;;;2230505;62;20393;-64
2022/01/22 10:56:00;0.00;0.00;0.62;0.00;0.00;0.62;1.20;0.70;;;20.80;28.80;;;;;;2235884;62;20452;-62
2022/01/22 10:58:58;0.00;0.00;0.62;0.00;0.00;0.62;1.20;0.70;;;20.80;28.80;;;;;;2237425;62;20458;-64
2022/01/22 11:01:53;0.00;0.00;0.62;0.00;0.00;0.62;1.40;0.90;;;20.90;28.80;;;;;;2237932;62;20390;-64
2022/01/22 11:04:43;0.00;0.00;0.62;0.00;0.00;0.62;1.33;0.90;;;20.90;28.80;;;;;;2237161;62;20411;-64
2022/01/22 11:07:28;0.00;0.00;0.62;0.00;0.00;0.62;1.40;1.00;;;20.90;28.80;;;;;;2233605;62;20364;-64
2022/01/22 11:10:12;0.00;0.00;0.62;0.00;0.00;0.62;1.40;0.70;;;20.90;28.80;;;;;;2232861;62;20397;-64
2022/01/22 11:12:57;0.00;0.00;0.62;0.00;0.00;0.62;1.40;0.80;;;20.90;28.80;;;;;;2233659;62;20432;-63
2022/01/22 11:15:43;0.00;0.00;0.62;0.00;0.00;0.62;1.60;1.00;;;20.90;28.80;;;;;;2233996;62;20450;-64
2022/01/22 11:18:29;0.00;0.00;0.62;0.00;0.00;0.62;1.30;0.80;;;20.90;28.80;;;;;;2232592;62;20436;-64
2022/01/22 11:21:17;0.00;0.00;0.62;0.00;0.00;0.62;1.40;0.87;;;20.90;28.70;;;;;;2233362;62;20736;-62
2022/01/22 11:24:03;0.00;0.00;0.62;0.00;0.00;0.62;2.03;0.80;;;20.90;28.70;;;;;;2233407;62;20364;-64
2022/01/22 11:26:51;0.00;0.00;0.62;0.00;0.00;0.62;1.40;0.80;;;21.00;28.80;;;;;;2233037;62;20404;-63
2022/01/22 11:29:41;0.00;0.00;0.62;0.00;0.00;0.62;1.23;0.73;;;21.00;28.80;;;;;;2233625;62;20424;-63
2022/01/22 11:32:30;0.00;0.00;0.62;0.00;0.00;0.62;1.47;1.00;;;21.00;28.70;;;;;;2232543;62;20634;-63
2022/01/22 11:35:22;0.00;0.00;0.62;0.00;0.00;0.62;1.77;0.80;;;21.00;28.70;;;;;;2233885;62;20433;-63
2022/01/22 11:38:12;0.00;0.00;0.62;0.00;0.00;0.62;1.30;0.70;;;21.00;28.70;;;;;;2233997;62;20374;-64
2022/01/22 11:41:10;0.00;0.00;0.62;0.00;0.00;0.62;1.50;0.80;;;21.00;28.70;;;;;;2232344;62;20373;-64
2022/01/22 11:44:03;0.00;0.00;0.62;0.00;0.00;0.62;1.60;1.00;;;21.00;28.70;;;;;;2233619;62;20400;-63
2022/01/22 11:46:58;0.00;0.00;0.62;0.00;0.00;0.62;1.50;0.90;;;21.00;28.70;;;;;;2233055;62;20364;-63
2022/01/22 11:50:07;0.00;0.00;0.62;0.00;0.00;0.62;2.17;0.80;;;21.00;28.60;;;;;;2233570;62;20724;-63
2022/01/22 11:53:22;0.00;0.00;0.62;0.00;0.00;0.62;1.30;0.80;;;21.00;28.60;;;;;;2233789;62;20380;-64
2022/01/22 11:56:24;0.00;0.00;0.62;0.00;0.00;0.62;1.30;0.70;;;21.00;28.60;;;;;;2257429;62;20453;-63
2022/01/22 11:59:28;0.00;0.00;0.62;0.00;0.00;0.62;1.40;0.90;;;21.00;28.60;;;;;;2229508;62;20415;-63
2022/01/22 12:02:14;0.00;0.00;0.62;0.00;0.00;0.62;1.40;0.77;;;21.00;28.60;;;;;;2228735;62;20584;-62
2022/01/22 12:05:04;0.00;0.00;0.62;0.00;0.00;0.62;1.50;0.80;;;21.00;29.10;;;;;;2229701;62;20997;-63
2022/01/22 12:07:58;0.00;0.00;0.62;0.00;0.00;0.62;1.20;0.70;;;21.00;28.60;;;;;;2229958;62;20742;-63
2022/01/22 12:14:26;0.00;0.00;0.62;0.00;0.00;0.62;1.40;0.90;;;21.10;28.70;;;;;;2228407;62;20393;-62
2022/01/22 12:16:54;0.00;0.00;0.62;0.00;0.00;0.62;1.70;1.03;;;21.10;28.60;;;;;;2228572;62;20405;-63
2022/01/22 12:20:03;0.00;0.00;0.62;0.00;0.00;0.62;1.53;1.03;;;21.10;28.60;;;;;;2229954;62;20421;-62
2022/01/22 12:22:48;0.00;0.00;0.62;0.00;0.00;0.62;2.07;0.90;;;21.10;28.60;;;;;;2229490;62;20429;-63
2022/01/22 12:25:51;0.00;0.00;0.62;0.00;0.00;0.62;1.40;0.80;;;21.10;28.60;;;;;;2228571;62;20369;-63
2022/01/22 12:28:39;0.00;0.00;0.62;0.00;0.00;0.62;1.60;1.00;;;21.10;28.60;;;;;;2229540;62;20610;-62
2022/01/22 12:31:24;0.00;0.00;0.62;0.00;0.00;0.62;1.40;0.77;;;21.10;28.60;;;;;;2229155;62;20588;-62
2022/01/22 12:34:09;0.00;0.00;0.62;0.00;0.00;0.62;1.37;0.90;;;21.10;28.60;;;;;;2229622;62;20426;-63